createdAt,value
2023-08-17T00:01:55.054Z,98593.31
2023-08-17T00:04:24.154Z,98584.94
2023-08-17T00:06:52.652Z,98591.44
2023-08-17T00:09:21.477Z,98591.63
2023-08-17T00:11:50.046Z,98593.69
2023-08-17T00:14:18.477Z,98588.28
2023-08-17T00:16:48.329Z,98589.34
2023-08-17T00:19:16.841Z,98579.94
2023-08-17T00:21:47.251Z,98588.28
2023-08-17T00:24:15.761Z,98568.69
2023-08-17T00:26:44.160Z,98580.56
2023-08-17T00:29:12.766Z,98585.38
2023-08-17T00:31:41.358Z,98595.59
2023-08-17T00:34:14.078Z,98591.19
2023-08-17T00:36:42.636Z,98595.81
2023-08-17T00:39:11.180Z,98604.78
2023-08-17T00:41:39.795Z,98604.38
2023-08-17T00:44:08.419Z,98613.31
2023-08-17T00:46:36.941Z,98617.06
2023-08-17T00:49:05.873Z,98620.19
2023-08-17T00:51:35.841Z,98635.41
2023-08-17T00:54:04.924Z,98634.41
2023-08-17T00:56:33.531Z,98635.66
2023-08-17T00:59:02.000Z,98635.00
2023-08-17T01:01:30.522Z,98636.69
2023-08-17T01:03:58.944Z,98639.00
2023-08-17T01:06:27.550Z,98631.50
2023-08-17T01:08:57.344Z,98629.81
2023-08-17T01:11:31.167Z,98637.13
2023-08-17T01:14:03.940Z,98636.69
2023-08-17T01:16:35.226Z,98640.00
2023-08-17T01:19:03.870Z,98641.06
2023-08-17T01:21:38.158Z,98647.97
2023-08-17T01:24:09.082Z,98654.84
2023-08-17T01:26:37.906Z,98652.13
2023-08-17T01:29:06.455Z,98653.19
2023-08-17T01:31:39.137Z,98644.63
2023-08-17T01:34:10.935Z,98639.81
2023-08-17T01:36:42.472Z,98643.78
2023-08-17T01:39:12.246Z,98641.66
2023-08-17T01:41:40.816Z,98634.75
2023-08-17T01:44:09.259Z,98638.31
2023-08-17T01:46:38.055Z,98636.88
2023-08-17T01:49:06.989Z,98641.22
2023-08-17T01:51:35.414Z,98642.44
2023-08-17T01:54:04.007Z,98646.63
2023-08-17T01:56:34.164Z,98647.91
2023-08-17T01:59:02.643Z,98647.91
2023-08-17T02:01:31.057Z,98646.22
2023-08-17T02:04:03.274Z,98631.44
2023-08-17T02:06:31.740Z,98638.53
2023-08-17T02:09:00.776Z,98630.75
2023-08-17T02:11:29.282Z,98639.16
2023-08-17T02:13:59.053Z,98641.44
2023-08-17T02:16:27.516Z,98647.91
2023-08-17T02:18:56.023Z,98646.88
2023-08-17T02:21:24.625Z,98645.81
2023-08-17T02:23:53.035Z,98649.16
2023-08-17T02:26:21.965Z,98655.59
2023-08-17T02:28:50.562Z,98648.69
2023-08-17T02:31:20.310Z,98654.09
2023-08-17T02:33:48.844Z,98652.44
2023-08-17T02:36:17.258Z,98654.28
2023-08-17T02:38:46.015Z,98657.41
2023-08-17T02:41:14.887Z,98638.66
2023-08-17T02:43:43.611Z,98648.03
2023-08-17T02:46:12.104Z,98642.16
2023-08-17T02:48:42.015Z,98648.59
2023-08-17T02:51:10.387Z,98649.00
2023-08-17T02:53:39.483Z,98644.00
2023-08-17T02:56:07.950Z,98650.06
2023-08-17T02:58:36.489Z,98645.47
2023-08-17T03:01:05.606Z,98639.41
2023-08-17T03:03:34.141Z,98645.22
2023-08-17T03:06:04.460Z,98646.47
2023-08-17T03:08:32.921Z,98643.97
2023-08-17T03:11:01.622Z,98644.81
2023-08-17T03:13:30.193Z,98641.03
2023-08-17T03:15:58.676Z,98644.34
2023-08-17T03:18:27.130Z,98644.34
2023-08-17T03:20:55.631Z,98638.09
2023-08-17T03:23:25.545Z,98638.53
2023-08-17T03:25:54.750Z,98640.34
2023-08-17T03:28:23.208Z,98635.09
2023-08-17T03:30:51.733Z,98645.47
2023-08-17T03:33:20.251Z,98647.13
2023-08-17T03:35:49.062Z,98645.47
2023-08-17T03:38:17.487Z,98634.88
2023-08-17T03:40:47.415Z,98637.19
2023-08-17T03:43:15.816Z,98626.97
2023-08-17T03:45:44.669Z,98622.03
2023-08-17T03:48:13.669Z,98624.06
2023-08-17T03:50:42.287Z,98633.03
2023-08-17T03:53:10.742Z,98631.47
2023-08-17T03:55:39.268Z,98628.34
2023-08-17T03:58:09.050Z,98633.84
2023-08-17T04:00:37.584Z,98630.47
2023-08-17T04:03:06.718Z,98631.88
2023-08-17T04:05:35.187Z,98640.19
2023-08-17T04:08:03.930Z,98638.75
2023-08-17T04:10:32.350Z,98642.75
2023-08-17T04:13:00.899Z,98644.53
2023-08-17T04:15:30.716Z,98651.25
2023-08-17T04:17:59.216Z,98655.44
2023-08-17T04:20:27.949Z,98659.00
2023-08-17T04:22:56.525Z,98666.72
2023-08-17T04:25:25.065Z,98671.53
2023-08-17T04:27:53.665Z,98675.13
2023-08-17T04:30:22.265Z,98674.97
2023-08-17T04:32:54.004Z,98668.13
2023-08-17T04:35:22.886Z,98665.97
2023-08-17T04:37:51.365Z,98671.34
2023-08-17T04:40:19.965Z,98664.94
2023-08-17T04:42:48.457Z,98662.88
2023-08-17T04:45:16.976Z,98662.94
2023-08-17T04:47:45.542Z,98662.69
2023-08-17T04:50:17.507Z,98670.94
2023-08-17T04:52:46.371Z,98677.00
2023-08-17T04:55:15.127Z,98679.84
2023-08-17T04:57:43.601Z,98675.13
2023-08-17T05:00:13.805Z,98678.13
2023-08-17T05:02:42.531Z,98688.41
2023-08-17T05:05:14.940Z,98684.84
2023-08-17T05:07:43.417Z,98690.66
2023-08-17T05:10:12.538Z,98691.22
2023-08-17T05:12:41.124Z,98691.78
2023-08-17T05:15:11.579Z,98696.19
2023-08-17T05:17:40.260Z,98697.66
2023-08-17T05:20:10.404Z,98694.34
2023-08-17T05:22:40.368Z,98704.50
2023-08-17T05:25:09.915Z,98716.44
2023-08-17T05:27:38.412Z,98720.59
2023-08-17T05:30:08.970Z,98722.25
2023-08-17T05:32:37.498Z,98718.31
2023-08-17T05:35:06.825Z,98725.19
2023-08-17T05:37:35.351Z,98728.94
2023-08-17T05:40:06.817Z,98724.56
2023-08-17T05:42:35.245Z,98720.59
2023-08-17T05:45:03.837Z,98711.47
2023-08-17T05:47:32.431Z,98717.72
2023-08-17T05:50:00.955Z,98714.81
2023-08-17T05:52:29.427Z,98717.28
2023-08-17T05:54:59.516Z,98714.34
2023-08-17T05:57:30.116Z,98718.94
2023-08-17T05:59:58.650Z,98713.13
2023-08-17T06:02:27.064Z,98722.72
2023-08-17T06:04:55.643Z,98716.88
2023-08-17T06:07:24.483Z,98718.34
2023-08-17T06:09:53.180Z,98716.84
2023-08-17T06:12:21.648Z,98714.13
2023-08-17T06:14:51.883Z,98716.66
2023-08-17T06:17:20.558Z,98716.66
2023-08-17T06:19:49.355Z,98705.81
2023-08-17T06:22:17.940Z,98709.78
2023-08-17T06:24:46.547Z,98702.72
2023-08-17T06:27:16.806Z,98708.78
2023-08-17T06:29:45.635Z,98707.72
2023-08-17T06:32:15.498Z,98711.06
2023-08-17T06:34:44.116Z,98721.25
2023-08-17T06:37:12.744Z,98717.31
2023-08-17T06:39:41.302Z,98721.69
2023-08-17T06:42:10.027Z,98718.97
2023-08-17T06:44:38.686Z,98722.94
2023-08-17T06:47:07.531Z,98726.31
2023-08-17T06:49:37.677Z,98725.28
2023-08-17T06:52:07.182Z,98734.22
2023-08-17T06:54:36.560Z,98722.31
2023-08-17T06:57:05.360Z,98721.91
2023-08-17T06:59:34.479Z,98717.34
2023-08-17T07:02:03.184Z,98718.13
2023-08-17T07:04:32.380Z,98720.66
2023-08-17T07:07:02.463Z,98715.66
2023-08-17T07:09:31.048Z,98716.31
2023-08-17T07:11:59.749Z,98717.13
2023-08-17T07:14:29.278Z,98715.59
2023-08-17T07:16:57.940Z,98725.00
2023-08-17T07:19:45.597Z,98724.44
2023-08-17T07:22:17.595Z,98729.03
2023-08-17T07:24:46.243Z,98726.31
2023-08-17T07:27:15.080Z,98725.50
2023-08-17T07:29:43.680Z,98720.06
2023-08-17T07:32:12.287Z,98723.78
2023-08-17T07:34:41.096Z,98727.34
2023-08-17T07:37:09.680Z,98724.44
2023-08-17T07:39:39.755Z,98720.91
2023-08-17T07:42:08.433Z,98714.44
2023-08-17T07:44:37.130Z,98720.69
2023-08-17T07:47:06.296Z,98721.09
2023-08-17T07:49:34.944Z,98718.97
2023-08-17T07:52:03.642Z,98720.06
2023-08-17T07:54:32.161Z,98717.78
2023-08-17T07:57:03.859Z,98723.19
2023-08-17T07:59:32.415Z,98726.56
2023-08-17T08:02:01.051Z,98715.72
2023-08-17T08:04:29.734Z,98719.03
2023-08-17T08:06:58.510Z,98716.97
2023-08-17T08:09:27.205Z,98726.56
2023-08-17T08:11:55.895Z,98720.31
2023-08-17T08:14:25.846Z,98722.16
2023-08-17T08:16:54.533Z,98724.09
2023-08-17T08:19:23.528Z,98715.94
2023-08-17T08:21:52.027Z,98712.38
2023-08-17T08:24:36.605Z,98711.56
2023-08-17T08:27:06.899Z,98717.44
2023-08-17T08:29:37.338Z,98709.91
2023-08-17T08:32:06.650Z,98711.38
2023-08-17T08:34:35.319Z,98703.25
2023-08-17T08:37:03.868Z,98706.13
2023-08-17T08:39:32.698Z,98707.00
2023-08-17T08:42:02.049Z,98714.09
2023-08-17T08:44:30.967Z,98699.13
2023-08-17T08:47:00.960Z,98710.97
2023-08-17T08:49:29.826Z,98695.34
2023-08-17T08:52:00.681Z,98702.84
2023-08-17T08:54:29.601Z,98698.47
2023-08-17T08:57:01.868Z,98704.50
2023-08-17T08:59:30.837Z,98696.59
2023-08-17T09:02:01.147Z,98694.94
2023-08-17T09:04:29.887Z,98681.56
2023-08-17T09:06:58.890Z,98688.81
2023-08-17T09:09:30.326Z,98681.91
2023-08-17T09:11:59.530Z,98682.16
2023-08-17T09:14:28.122Z,98683.16
2023-08-17T09:17:00.213Z,98673.53
2023-08-17T09:19:30.175Z,98669.84
2023-08-17T09:21:58.722Z,98673.53
2023-08-17T09:24:27.244Z,98669.44
2023-08-17T09:26:59.792Z,98671.38
2023-08-17T09:29:28.363Z,98675.31
2023-08-17T09:31:56.983Z,98664.66
2023-08-17T09:34:25.553Z,98665.72
2023-08-17T09:36:55.374Z,98662.59
2023-08-17T09:39:23.793Z,98654.28
2023-08-17T09:41:52.302Z,98658.06
2023-08-17T09:44:20.917Z,98659.47
2023-08-17T09:46:49.533Z,98650.28
2023-08-17T09:49:19.183Z,98649.41
2023-08-17T09:51:47.612Z,98636.28
2023-08-17T09:54:28.106Z,98638.56
2023-08-17T09:56:56.635Z,98634.84
2023-08-17T09:59:26.345Z,98643.03
2023-08-17T10:01:57.297Z,98641.63
2023-08-17T10:04:26.319Z,98640.13
2023-08-17T10:06:59.638Z,98648.88
2023-08-17T10:09:37.353Z,98648.81
2023-08-17T10:12:12.497Z,98654.00
2023-08-17T10:14:47.993Z,98650.69
2023-08-17T10:17:19.412Z,98642.44
2023-08-17T10:19:53.358Z,98652.63
2023-08-17T10:22:25.120Z,98646.13
2023-08-17T10:24:55.217Z,98643.63
2023-08-17T10:27:23.678Z,98640.31
2023-08-17T10:29:52.127Z,98632.38
2023-08-17T10:32:20.750Z,98633.44
2023-08-17T10:34:49.298Z,98639.56
2023-08-17T10:37:17.731Z,98628.97
2023-08-17T10:39:47.898Z,98627.50
2023-08-17T10:42:20.859Z,98625.81
2023-08-17T10:44:50.350Z,98637.22
2023-08-17T10:47:26.195Z,98636.38
2023-08-17T10:49:58.351Z,98640.16
2023-08-17T10:52:32.144Z,98649.56
2023-08-17T10:55:02.533Z,98641.22
2023-08-17T10:57:36.455Z,98642.06
2023-08-17T11:00:22.037Z,98644.38
2023-08-17T11:02:57.911Z,98641.88
2023-08-17T11:05:43.623Z,98640.00
2023-08-17T11:08:15.131Z,98651.88
2023-08-17T11:10:48.323Z,98662.94
2023-08-17T11:13:18.372Z,98655.25
2023-08-17T11:15:49.611Z,98651.69
2023-08-17T11:18:18.326Z,98655.03
2023-08-17T11:20:48.133Z,98647.97
2023-08-17T11:23:16.795Z,98647.09
2023-08-17T11:25:45.431Z,98656.28
2023-08-17T11:28:15.393Z,98659.63
2023-08-17T11:30:47.820Z,98666.34
2023-08-17T11:33:16.431Z,98684.50
2023-08-17T11:35:45.467Z,98702.41
2023-08-17T11:38:14.166Z,98740.16
2023-08-17T11:40:42.572Z,98749.94
2023-08-17T11:43:12.341Z,98776.41
2023-08-17T11:45:41.555Z,98759.91
2023-08-17T11:48:11.850Z,98753.22
2023-08-17T11:50:42.095Z,98730.50
2023-08-17T11:53:10.648Z,98716.28
2023-08-17T11:55:39.397Z,98709.41
2023-08-17T11:58:10.478Z,98709.63
2023-08-17T12:00:43.685Z,98708.56
2023-08-17T12:03:16.897Z,98709.22
2023-08-17T12:05:46.562Z,98708.56
2023-08-17T12:08:16.553Z,98716.72
2023-08-17T12:10:45.359Z,98715.78
2023-08-17T12:13:15.913Z,98720.28
2023-08-17T12:15:44.694Z,98715.72
2023-08-17T12:18:14.695Z,98705.72
2023-08-17T12:20:44.568Z,98701.16
2023-08-17T12:23:15.130Z,98697.03
2023-08-17T12:25:43.763Z,98693.28
2023-08-17T12:28:14.750Z,98690.75
2023-08-17T12:30:43.411Z,98693.50
2023-08-17T12:33:13.370Z,98688.72
2023-08-17T12:35:41.923Z,98697.88
2023-08-17T12:38:10.439Z,98700.59
2023-08-17T12:40:39.047Z,98705.78
2023-08-17T12:43:07.633Z,98713.72
2023-08-17T12:45:36.215Z,98712.88
2023-08-17T12:48:05.121Z,98724.75
2023-08-17T12:50:35.558Z,98735.81
2023-08-17T12:53:04.143Z,98739.75
2023-08-17T12:55:32.589Z,98738.28
2023-08-17T12:58:02.245Z,98734.75
2023-08-17T13:00:30.749Z,98738.28
2023-08-17T13:02:59.347Z,98749.56
2023-08-17T13:05:27.829Z,98742.47
2023-08-17T13:07:57.839Z,98738.94
2023-08-17T13:10:26.395Z,98733.06
2023-08-17T13:12:57.670Z,98735.75
2023-08-17T13:15:29.788Z,98744.53
2023-08-17T13:17:58.526Z,98748.47
2023-08-17T13:20:27.137Z,98748.91
2023-08-17T13:22:57.073Z,98747.41
2023-08-17T13:25:25.549Z,98747.41
2023-08-17T13:27:54.027Z,98739.94
2023-08-17T13:30:22.458Z,98738.06
2023-08-17T13:32:51.119Z,98739.88
2023-08-17T13:35:19.971Z,98730.94
2023-08-17T13:37:48.475Z,98737.22
2023-08-17T13:40:18.418Z,98735.09
2023-08-17T13:42:47.130Z,98730.09
2023-08-17T13:45:15.703Z,98727.41
2023-08-17T13:47:44.130Z,98721.97
2023-08-17T13:50:12.942Z,98711.38
2023-08-17T13:52:41.843Z,98703.25
2023-08-17T13:55:11.207Z,98705.53
2023-08-17T13:57:41.043Z,98691.16
2023-08-17T14:00:11.834Z,98679.69
2023-08-17T14:02:40.971Z,98670.94
2023-08-17T14:05:10.657Z,98661.97
2023-08-17T14:07:39.066Z,98661.59
2023-08-17T14:10:13.834Z,98650.09
2023-08-17T14:12:48.717Z,98645.94
2023-08-17T14:15:17.191Z,98643.84
2023-08-17T14:17:45.738Z,98635.09
2023-08-17T14:20:16.553Z,98629.47
2023-08-17T14:22:45.158Z,98627.81
2023-08-17T14:25:13.645Z,98636.78
2023-08-17T14:27:42.144Z,98630.31
2023-08-17T14:30:13.073Z,98632.00
2023-08-17T14:32:41.560Z,98638.44
2023-08-17T14:35:13.217Z,98636.97
2023-08-17T14:37:41.947Z,98661.59
2023-08-17T14:40:11.399Z,98658.22
2023-08-17T14:42:40.234Z,98661.13
2023-08-17T14:45:11.863Z,98651.97
2023-08-17T14:47:40.503Z,98631.13
2023-08-17T14:50:09.651Z,98638.84
2023-08-17T14:52:38.242Z,98635.69
2023-08-17T14:55:07.356Z,98632.34
2023-08-17T14:57:35.849Z,98640.69
2023-08-17T15:00:05.349Z,98633.63
2023-08-17T15:02:35.223Z,98642.78
2023-08-17T15:05:03.860Z,98635.69
2023-08-17T15:10:04.895Z,98643.63
2023-08-17T15:12:33.358Z,98637.16
2023-08-17T15:15:02.139Z,98633.22
2023-08-17T15:17:30.673Z,98636.56
2023-08-17T15:20:01.397Z,98628.44
2023-08-17T15:22:29.806Z,98632.78
2023-08-17T15:24:58.308Z,98630.09
2023-08-17T15:27:27.112Z,98626.91
2023-08-17T15:29:55.923Z,98628.59
2023-08-17T15:32:24.362Z,98625.91
2023-08-17T15:34:54.826Z,98625.06
2023-08-17T15:37:26.617Z,98631.09
2023-08-17T15:39:55.556Z,98634.66
2023-08-17T15:42:23.981Z,98646.53
2023-08-17T15:44:53.269Z,98649.47
2023-08-17T15:47:21.747Z,98654.47
2023-08-17T15:49:50.232Z,98649.69
2023-08-17T15:52:19.068Z,98647.41
2023-08-17T15:54:48.919Z,98644.88
2023-08-17T15:57:17.347Z,98649.06
2023-08-17T15:59:45.732Z,98648.22
2023-08-17T16:02:14.245Z,98640.47
2023-08-17T16:04:43.050Z,98653.22
2023-08-17T16:07:11.624Z,98653.22
2023-08-17T16:09:40.681Z,98648.81
2023-08-17T16:12:11.684Z,98646.13
2023-08-17T16:14:40.159Z,98645.06
2023-08-17T16:17:08.703Z,98630.50
2023-08-17T16:19:37.226Z,98628.19
2023-08-17T16:22:06.096Z,98625.69
2023-08-17T16:24:34.590Z,98625.50
2023-08-17T16:27:03.480Z,98614.00
2023-08-17T16:29:33.334Z,98612.94
2023-08-17T16:32:09.129Z,98607.53
2023-08-17T16:34:38.227Z,98611.75
2023-08-17T16:37:07.150Z,98608.97
2023-08-17T16:39:35.996Z,98624.97
2023-08-17T16:42:04.972Z,98631.28
2023-08-17T16:44:35.246Z,98630.44
2023-08-17T16:47:03.799Z,98635.47
2023-08-17T16:49:32.266Z,98633.59
2023-08-17T16:52:01.408Z,98630.66
2023-08-17T16:54:29.972Z,98641.28
2023-08-17T16:56:58.439Z,98644.66
2023-08-17T16:59:27.029Z,98646.06
2023-08-17T17:01:56.989Z,98649.47
2023-08-17T17:04:25.502Z,98652.34
2023-08-17T17:06:54.007Z,98650.47
2023-08-17T17:09:22.730Z,98656.00
2023-08-17T17:11:51.279Z,98640.63
2023-08-17T17:14:19.826Z,98641.28
2023-08-17T17:16:48.244Z,98629.44
2023-08-17T17:19:19.304Z,98636.09
2023-08-17T17:21:47.867Z,98633.56
2023-08-17T17:24:16.348Z,98617.75
2023-08-17T17:26:44.791Z,98615.25
2023-08-17T17:29:13.268Z,98614.19
2023-08-17T17:31:41.981Z,98609.84
2023-08-17T17:34:10.623Z,98608.13
2023-08-17T17:36:40.483Z,98598.16
2023-08-17T17:39:08.911Z,98596.91
2023-08-17T17:41:37.390Z,98599.63
2023-08-17T17:44:06.713Z,98595.22
2023-08-17T17:46:35.236Z,98603.16
2023-08-17T17:49:03.747Z,98611.91
2023-08-17T17:51:32.218Z,98602.72
2023-08-17T17:54:02.234Z,98592.94
2023-08-17T17:56:40.647Z,98570.00
2023-08-17T17:59:11.247Z,98562.72
2023-08-17T18:01:40.299Z,98555.44
2023-08-17T18:04:08.839Z,98561.47
2023-08-17T18:06:37.292Z,98558.34
2023-08-17T18:09:07.323Z,98557.72
2023-08-17T18:11:36.127Z,98558.13
2023-08-17T18:14:04.707Z,98555.66
2023-08-17T18:16:33.267Z,98542.09
2023-08-17T18:19:01.933Z,98542.94
2023-08-17T18:21:32.122Z,98546.47
2023-08-17T18:24:00.865Z,98544.81
2023-08-17T18:26:30.721Z,98549.78
2023-08-17T18:28:59.797Z,98555.81
2023-08-17T18:31:29.205Z,98550.19
2023-08-17T18:33:57.861Z,98557.88
2023-08-17T18:36:26.630Z,98550.94
2023-08-17T18:38:55.298Z,98551.34
2023-08-17T18:41:23.911Z,98558.66
2023-08-17T18:43:54.153Z,98554.75
2023-08-17T18:46:22.986Z,98561.25
2023-08-17T18:48:51.670Z,98561.03
2023-08-17T18:51:20.185Z,98565.84
2023-08-17T18:53:49.346Z,98565.66
2023-08-17T18:56:17.798Z,98562.09
2023-08-17T18:58:46.315Z,98566.69
2023-08-17T19:01:18.814Z,98562.31
2023-08-17T19:03:47.435Z,98566.91
2023-08-17T19:06:15.985Z,98555.00
2023-08-17T19:08:44.535Z,98565.22
2023-08-17T19:11:12.967Z,98564.56
2023-08-17T19:13:41.429Z,98574.16
2023-08-17T19:16:10.377Z,98582.75
2023-08-17T19:18:40.210Z,98595.22
2023-08-17T19:21:09.180Z,98618.13
2023-08-17T19:23:37.654Z,98612.69
2023-08-17T19:26:06.851Z,98611.84
2023-08-17T19:28:35.329Z,98622.03
2023-08-17T19:31:03.764Z,98614.91
2023-08-17T19:33:32.390Z,98597.66
2023-08-17T19:36:02.281Z,98598.72
2023-08-17T19:38:30.781Z,98598.91
2023-08-17T19:40:59.273Z,98582.66
2023-08-17T19:43:27.806Z,98608.50
2023-08-17T19:45:56.368Z,98589.31
2023-08-17T19:48:24.918Z,98601.19
2023-08-17T19:50:54.759Z,98608.81
2023-08-17T19:53:24.936Z,98610.50
2023-08-17T19:55:54.257Z,98612.22
2023-08-17T19:58:23.028Z,98610.16
2023-08-17T20:00:51.821Z,98612.03
2023-08-17T20:03:21.770Z,98611.97
2023-08-17T20:05:50.964Z,98625.63
2023-08-17T20:08:19.816Z,98653.34
2023-08-17T20:10:49.988Z,98653.75
2023-08-17T20:13:18.842Z,98660.25
2023-08-17T20:15:47.639Z,98675.50
2023-08-17T20:18:16.324Z,98675.66
2023-08-17T20:20:52.034Z,98678.72
2023-08-17T20:23:21.346Z,98664.00
2023-08-17T20:25:53.805Z,98652.00
2023-08-17T20:28:23.639Z,98658.88
2023-08-17T20:30:57.469Z,98673.06
2023-08-17T20:33:26.169Z,98671.00
2023-08-17T20:35:55.422Z,98669.31
2023-08-17T20:38:24.229Z,98662.44
2023-08-17T20:40:54.607Z,98658.47
2023-08-17T20:43:23.608Z,98659.47
2023-08-17T20:45:52.271Z,98660.13
2023-08-17T20:48:21.036Z,98658.88
2023-08-17T20:50:49.888Z,98660.56
2023-08-17T20:53:18.626Z,98660.38
2023-08-17T20:55:47.921Z,98654.31
2023-08-17T20:58:18.379Z,98646.00
2023-08-17T21:00:47.163Z,98636.41
2023-08-17T21:03:16.013Z,98634.91
2023-08-17T21:05:44.822Z,98636.81
2023-08-17T21:08:14.089Z,98631.38
2023-08-17T21:10:43.563Z,98629.84
2023-08-17T21:13:12.436Z,98626.28
2023-08-17T21:15:42.849Z,98626.91
2023-08-17T21:18:11.638Z,98642.41
2023-08-17T21:20:42.778Z,98637.88
2023-08-17T21:23:12.661Z,98635.16
2023-08-17T21:25:41.476Z,98634.34
2023-08-17T21:28:10.163Z,98651.00
2023-08-17T21:30:38.890Z,98649.75
2023-08-17T21:33:09.037Z,98647.41
2023-08-17T21:35:38.131Z,98650.97
2023-08-17T21:38:06.977Z,98644.25
2023-08-17T21:40:35.946Z,98636.81
2023-08-17T21:43:04.686Z,98632.03
2023-08-17T21:45:33.477Z,98632.63
2023-08-17T21:48:02.298Z,98626.59
2023-08-17T21:50:32.585Z,98618.88
2023-08-17T21:53:01.412Z,98618.88
2023-08-17T21:55:30.369Z,98613.25
2023-08-17T21:57:59.214Z,98615.84
2023-08-17T22:00:28.111Z,98620.06
2023-08-17T22:02:57.103Z,98626.75
2023-08-17T22:05:25.830Z,98629.47
2023-08-17T22:07:55.999Z,98642.84
2023-08-17T22:10:24.737Z,98648.06
2023-08-17T22:12:54.097Z,98654.72
2023-08-17T22:15:22.892Z,98666.78
2023-08-17T22:17:51.925Z,98655.09
2023-08-17T22:20:20.692Z,98651.13
2023-08-17T22:22:49.640Z,98646.53
2023-08-17T22:25:19.850Z,98648.00
2023-08-17T22:27:48.663Z,98648.00
2023-08-17T22:30:17.480Z,98642.59
2023-08-17T22:32:47.220Z,98644.25
2023-08-17T22:35:15.920Z,98651.53
2023-08-17T22:37:44.638Z,98647.19
2023-08-17T22:40:13.598Z,98632.78
2023-08-17T22:42:43.931Z,98645.47
2023-08-17T22:45:13.284Z,98649.88
2023-08-17T22:47:42.110Z,98649.44
2023-08-17T22:50:11.711Z,98639.66
2023-08-17T22:52:40.768Z,98642.13
2023-08-17T22:55:09.948Z,98642.13
2023-08-17T22:57:38.922Z,98634.88
2023-08-17T23:00:10.683Z,98635.69
2023-08-17T23:02:39.415Z,98631.75
2023-08-17T23:05:09.132Z,98636.34
2023-08-17T23:07:37.873Z,98640.91
2023-08-17T23:10:07.602Z,98638.19
2023-08-17T23:12:36.452Z,98643.81
2023-08-17T23:15:05.584Z,98622.34
2023-08-17T23:17:35.995Z,98628.41
2023-08-17T23:20:05.043Z,98621.75
2023-08-17T23:22:33.763Z,98625.50
2023-08-17T23:25:02.554Z,98628.41
2023-08-17T23:27:31.795Z,98621.72
2023-08-17T23:30:01.065Z,98613.75
2023-08-17T23:32:30.030Z,98611.28
2023-08-17T23:35:00.290Z,98604.16
2023-08-17T23:37:29.228Z,98597.44
2023-08-17T23:39:58.390Z,98597.66
2023-08-17T23:42:27.167Z,98594.47
2023-08-17T23:44:55.928Z,98594.03
2023-08-17T23:47:24.657Z,98595.78
2023-08-17T23:49:53.595Z,98588.78
2023-08-17T23:52:23.916Z,98599.19
2023-08-17T23:54:52.845Z,98595.88
2023-08-17T23:57:21.531Z,98609.88
2023-08-17T23:59:50.823Z,98602.56
